sensor_id;sensor_type;location;lat;lon;timestamp;temperature;humidity
41630;DHT22;27322;49.488;8.480;2022-08-21T00:01:46;21.70;77.70
41630;DHT22;27322;49.488;8.480;2022-08-21T00:04:12;21.80;77.60
41630;DHT22;27322;49.488;8.480;2022-08-21T00:06:38;21.70;77.00
41630;DHT22;27322;49.488;8.480;2022-08-21T00:09:06;21.70;76.10
41630;DHT22;27322;49.488;8.480;2022-08-21T00:11:33;21.70;75.70
41630;DHT22;27322;49.488;8.480;2022-08-21T00:13:58;21.70;77.20
41630;DHT22;27322;49.488;8.480;2022-08-21T00:16:24;21.80;77.50
41630;DHT22;27322;49.488;8.480;2022-08-21T00:18:50;21.90;77.00
41630;DHT22;27322;49.488;8.480;2022-08-21T00:21:15;21.90;77.00
41630;DHT22;27322;49.488;8.480;2022-08-21T00:23:41;21.90;76.80
41630;DHT22;27322;49.488;8.480;2022-08-21T00:26:07;21.80;76.90
41630;DHT22;27322;49.488;8.480;2022-08-21T00:28:33;21.70;77.60
41630;DHT22;27322;49.488;8.480;2022-08-21T00:30:59;21.70;78.50
41630;DHT22;27322;49.488;8.480;2022-08-21T00:33:25;21.70;78.20
41630;DHT22;27322;49.488;8.480;2022-08-21T00:35:51;21.60;78.90
41630;DHT22;27322;49.488;8.480;2022-08-21T00:38:18;21.60;79.30
41630;DHT22;27322;49.488;8.480;2022-08-21T00:40:48;21.50;79.20
41630;DHT22;27322;49.488;8.480;2022-08-21T00:43:17;21.40;79.50
41630;DHT22;27322;49.488;8.480;2022-08-21T00:45:43;21.30;79.90
41630;DHT22;27322;49.488;8.480;2022-08-21T00:48:10;21.20;81.10
41630;DHT22;27322;49.488;8.480;2022-08-21T00:50:41;21.20;81.20
41630;DHT22;27322;49.488;8.480;2022-08-21T00:53:08;21.20;81.80
41630;DHT22;27322;49.488;8.480;2022-08-21T00:55:36;21.20;81.90
41630;DHT22;27322;49.488;8.480;2022-08-21T00:58:04;21.20;82.00
41630;DHT22;27322;49.488;8.480;2022-08-21T01:00:33;21.20;82.10
41630;DHT22;27322;49.488;8.480;2022-08-21T01:03:01;21.10;81.70
41630;DHT22;27322;49.488;8.480;2022-08-21T01:05:30;21.00;81.90
41630;DHT22;27322;49.488;8.480;2022-08-21T01:07:55;20.90;82.30
41630;DHT22;27322;49.488;8.480;2022-08-21T01:10:22;20.90;82.90
41630;DHT22;27322;49.488;8.480;2022-08-21T01:12:49;20.90;82.70
41630;DHT22;27322;49.488;8.480;2022-08-21T01:15:17;20.90;83.00
41630;DHT22;27322;49.488;8.480;2022-08-21T01:17:44;20.90;83.10
41630;DHT22;27322;49.488;8.480;2022-08-21T01:20:11;20.90;83.20
41630;DHT22;27322;49.488;8.480;2022-08-21T01:22:37;21.00;83.30
41630;DHT22;27322;49.488;8.480;2022-08-21T01:25:09;21.00;83.00
41630;DHT22;27322;49.488;8.480;2022-08-21T01:27:35;20.90;83.10
41630;DHT22;27322;49.488;8.480;2022-08-21T01:30:09;20.90;83.40
41630;DHT22;27322;49.488;8.480;2022-08-21T01:32:36;20.90;83.50
41630;DHT22;27322;49.488;8.480;2022-08-21T01:35:03;20.90;83.40
41630;DHT22;27322;49.488;8.480;2022-08-21T01:37:30;20.90;83.50
41630;DHT22;27322;49.488;8.480;2022-08-21T01:39:55;20.90;83.60
41630;DHT22;27322;49.488;8.480;2022-08-21T01:42:21;20.70;83.50
41630;DHT22;27322;49.488;8.480;2022-08-21T01:44:47;20.60;83.90
41630;DHT22;27322;49.488;8.480;2022-08-21T01:47:14;20.60;85.00
41630;DHT22;27322;49.488;8.480;2022-08-21T01:49:40;20.70;84.60
41630;DHT22;27322;49.488;8.480;2022-08-21T01:52:07;20.60;84.60
41630;DHT22;27322;49.488;8.480;2022-08-21T01:54:33;20.60;84.60
41630;DHT22;27322;49.488;8.480;2022-08-21T01:57:00;20.60;84.70
41630;DHT22;27322;49.488;8.480;2022-08-21T01:59:26;20.60;85.30
41630;DHT22;27322;49.488;8.480;2022-08-21T02:01:52;20.60;85.50
41630;DHT22;27322;49.488;8.480;2022-08-21T02:04:20;20.50;85.60
41630;DHT22;27322;49.488;8.480;2022-08-21T02:06:46;20.40;86.40
41630;DHT22;27322;49.488;8.480;2022-08-21T02:09:13;20.30;87.20
41630;DHT22;27322;49.488;8.480;2022-08-21T02:11:40;20.20;88.10
41630;DHT22;27322;49.488;8.480;2022-08-21T02:14:11;20.10;88.70
41630;DHT22;27322;49.488;8.480;2022-08-21T02:16:39;20.20;90.10
41630;DHT22;27322;49.488;8.480;2022-08-21T02:19:04;20.20;90.30
41630;DHT22;27322;49.488;8.480;2022-08-21T02:21:30;20.10;90.20
41630;DHT22;27322;49.488;8.480;2022-08-21T02:23:56;20.10;90.40
41630;DHT22;27322;49.488;8.480;2022-08-21T02:26:22;20.00;90.40
41630;DHT22;27322;49.488;8.480;2022-08-21T02:28:47;19.90;90.90
41630;DHT22;27322;49.488;8.480;2022-08-21T02:31:13;19.90;91.00
41630;DHT22;27322;49.488;8.480;2022-08-21T02:33:39;19.80;91.00
41630;DHT22;27322;49.488;8.480;2022-08-21T02:36:05;19.90;91.60
41630;DHT22;27322;49.488;8.480;2022-08-21T02:38:33;20.00;91.50
41630;DHT22;27322;49.488;8.480;2022-08-21T02:41:00;20.10;91.30
41630;DHT22;27322;49.488;8.480;2022-08-21T02:43:27;20.10;91.20
41630;DHT22;27322;49.488;8.480;2022-08-21T02:45:54;20.20;91.20
41630;DHT22;27322;49.488;8.480;2022-08-21T02:48:24;20.10;91.20
41630;DHT22;27322;49.488;8.480;2022-08-21T02:50:57;20.10;91.50
41630;DHT22;27322;49.488;8.480;2022-08-21T02:53:23;20.10;91.70
41630;DHT22;27322;49.488;8.480;2022-08-21T02:55:51;20.00;91.70
41630;DHT22;27322;49.488;8.480;2022-08-21T02:58:23;20.00;92.10
41630;DHT22;27322;49.488;8.480;2022-08-21T03:00:49;20.00;92.10
41630;DHT22;27322;49.488;8.480;2022-08-21T03:03:15;19.90;92.00
41630;DHT22;27322;49.488;8.480;2022-08-21T03:05:42;19.90;92.20
41630;DHT22;27322;49.488;8.480;2022-08-21T03:08:10;19.90;92.50
41630;DHT22;27322;49.488;8.480;2022-08-21T03:10:38;19.90;92.40
41630;DHT22;27322;49.488;8.480;2022-08-21T03:13:06;19.80;92.30
41630;DHT22;27322;49.488;8.480;2022-08-21T03:15:32;19.60;92.40
41630;DHT22;27322;49.488;8.480;2022-08-21T03:17:58;19.70;92.50
41630;DHT22;27322;49.488;8.480;2022-08-21T03:20:25;19.70;92.60
41630;DHT22;27322;49.488;8.480;2022-08-21T03:22:53;19.80;92.60
41630;DHT22;27322;49.488;8.480;2022-08-21T03:25:20;19.80;92.40
41630;DHT22;27322;49.488;8.480;2022-08-21T03:27:46;19.70;92.30
41630;DHT22;27322;49.488;8.480;2022-08-21T03:30:14;19.70;92.20
41630;DHT22;27322;49.488;8.480;2022-08-21T03:32:40;19.70;92.20
41630;DHT22;27322;49.488;8.480;2022-08-21T03:35:07;19.60;92.00
41630;DHT22;27322;49.488;8.480;2022-08-21T03:37:33;19.70;91.90
41630;DHT22;27322;49.488;8.480;2022-08-21T03:39:59;19.60;92.10
41630;DHT22;27322;49.488;8.480;2022-08-21T03:42:25;19.70;92.00
41630;DHT22;27322;49.488;8.480;2022-08-21T03:44:51;19.60;91.90
41630;DHT22;27322;49.488;8.480;2022-08-21T03:47:17;19.70;91.90
41630;DHT22;27322;49.488;8.480;2022-08-21T03:49:42;19.70;91.70
41630;DHT22;27322;49.488;8.480;2022-08-21T03:52:08;19.60;91.70
41630;DHT22;27322;49.488;8.480;2022-08-21T03:54:34;19.60;91.70
41630;DHT22;27322;49.488;8.480;2022-08-21T03:57:00;19.50;91.80
41630;DHT22;27322;49.488;8.480;2022-08-21T03:59:26;19.50;92.00
41630;DHT22;27322;49.488;8.480;2022-08-21T04:01:56;19.40;92.10
41630;DHT22;27322;49.488;8.480;2022-08-21T04:04:24;19.30;92.30
41630;DHT22;27322;49.488;8.480;2022-08-21T04:06:50;19.20;92.30
41630;DHT22;27322;49.488;8.480;2022-08-21T04:09:16;19.10;92.30
41630;DHT22;27322;49.488;8.480;2022-08-21T04:11:42;19.20;93.20
41630;DHT22;27322;49.488;8.480;2022-08-21T04:14:08;19.30;93.30
41630;DHT22;27322;49.488;8.480;2022-08-21T04:16:34;19.30;93.30
41630;DHT22;27322;49.488;8.480;2022-08-21T04:19:00;19.40;93.40
41630;DHT22;27322;49.488;8.480;2022-08-21T04:21:26;19.40;93.20
41630;DHT22;27322;49.488;8.480;2022-08-21T04:23:54;19.50;93.00
41630;DHT22;27322;49.488;8.480;2022-08-21T04:26:20;19.50;93.00
41630;DHT22;27322;49.488;8.480;2022-08-21T04:28:46;19.50;93.00
41630;DHT22;27322;49.488;8.480;2022-08-21T04:31:11;19.40;92.80
41630;DHT22;27322;49.488;8.480;2022-08-21T04:33:37;19.40;92.60
41630;DHT22;27322;49.488;8.480;2022-08-21T04:36:04;19.40;92.40
41630;DHT22;27322;49.488;8.480;2022-08-21T04:38:30;19.40;92.40
41630;DHT22;27322;49.488;8.480;2022-08-21T04:40:57;19.40;92.40
41630;DHT22;27322;49.488;8.480;2022-08-21T04:43:23;19.30;92.50
41630;DHT22;27322;49.488;8.480;2022-08-21T04:45:50;19.10;92.80
41630;DHT22;27322;49.488;8.480;2022-08-21T04:48:19;19.10;93.10
41630;DHT22;27322;49.488;8.480;2022-08-21T04:53:43;19.10;93.20
41630;DHT22;27322;49.488;8.480;2022-08-21T04:56:20;19.10;93.20
41630;DHT22;27322;49.488;8.480;2022-08-21T04:58:46;19.10;93.20
41630;DHT22;27322;49.488;8.480;2022-08-21T05:01:17;19.10;93.20
41630;DHT22;27322;49.488;8.480;2022-08-21T05:03:44;19.00;93.40
41630;DHT22;27322;49.488;8.480;2022-08-21T05:06:13;18.90;93.50
41630;DHT22;27322;49.488;8.480;2022-08-21T05:08:41;18.80;93.90
41630;DHT22;27322;49.488;8.480;2022-08-21T05:11:09;18.90;94.10
41630;DHT22;27322;49.488;8.480;2022-08-21T05:13:35;18.90;94.10
41630;DHT22;27322;49.488;8.480;2022-08-21T05:16:01;18.90;93.90
41630;DHT22;27322;49.488;8.480;2022-08-21T05:18:26;18.90;94.30
41630;DHT22;27322;49.488;8.480;2022-08-21T05:20:52;19.00;94.30
41630;DHT22;27322;49.488;8.480;2022-08-21T05:23:18;19.00;94.30
41630;DHT22;27322;49.488;8.480;2022-08-21T05:25:44;18.90;94.20
41630;DHT22;27322;49.488;8.480;2022-08-21T05:28:10;18.90;94.30
41630;DHT22;27322;49.488;8.480;2022-08-21T05:30:36;18.80;94.30
41630;DHT22;27322;49.488;8.480;2022-08-21T05:33:04;18.80;94.60
41630;DHT22;27322;49.488;8.480;2022-08-21T05:35:30;18.80;94.80
41630;DHT22;27322;49.488;8.480;2022-08-21T05:37:57;18.90;94.90
41630;DHT22;27322;49.488;8.480;2022-08-21T05:40:23;19.00;94.70
41630;DHT22;27322;49.488;8.480;2022-08-21T05:42:50;19.00;94.80
41630;DHT22;27322;49.488;8.480;2022-08-21T05:45:16;19.10;94.50
41630;DHT22;27322;49.488;8.480;2022-08-21T05:47:42;19.20;94.50
41630;DHT22;27322;49.488;8.480;2022-08-21T05:50:08;19.30;94.30
41630;DHT22;27322;49.488;8.480;2022-08-21T05:52:34;19.20;94.50
41630;DHT22;27322;49.488;8.480;2022-08-21T05:54:59;19.30;94.80
41630;DHT22;27322;49.488;8.480;2022-08-21T05:57:25;19.30;94.70
41630;DHT22;27322;49.488;8.480;2022-08-21T05:59:51;19.40;94.20
41630;DHT22;27322;49.488;8.480;2022-08-21T06:02:18;19.60;94.20
41630;DHT22;27322;49.488;8.480;2022-08-21T06:04:44;19.60;93.90
41630;DHT22;27322;49.488;8.480;2022-08-21T06:07:10;19.70;93.80
41630;DHT22;27322;49.488;8.480;2022-08-21T06:09:36;19.70;94.00
41630;DHT22;27322;49.488;8.480;2022-08-21T06:12:11;19.80;94.20
41630;DHT22;27322;49.488;8.480;2022-08-21T06:14:38;19.80;94.20
41630;DHT22;27322;49.488;8.480;2022-08-21T06:17:06;19.80;93.40
41630;DHT22;27322;49.488;8.480;2022-08-21T06:19:32;19.90;93.40
41630;DHT22;27322;49.488;8.480;2022-08-21T06:21:58;20.00;93.10
41630;DHT22;27322;49.488;8.480;2022-08-21T06:24:24;20.00;93.10
41630;DHT22;27322;49.488;8.480;2022-08-21T06:26:51;20.10;92.80
41630;DHT22;27322;49.488;8.480;2022-08-21T06:29:17;20.20;92.40
41630;DHT22;27322;49.488;8.480;2022-08-21T06:31:43;20.20;92.30
41630;DHT22;27322;49.488;8.480;2022-08-21T06:34:10;20.20;92.10
41630;DHT22;27322;49.488;8.480;2022-08-21T06:36:36;20.30;91.80
41630;DHT22;27322;49.488;8.480;2022-08-21T06:39:02;20.40;91.10
41630;DHT22;27322;49.488;8.480;2022-08-21T06:41:28;20.40;90.90
41630;DHT22;27322;49.488;8.480;2022-08-21T06:43:55;20.50;90.90
41630;DHT22;27322;49.488;8.480;2022-08-21T06:46:21;20.60;90.90
41630;DHT22;27322;49.488;8.480;2022-08-21T06:48:47;20.80;90.10
41630;DHT22;27322;49.488;8.480;2022-08-21T06:51:13;20.90;89.60
41630;DHT22;27322;49.488;8.480;2022-08-21T06:53:38;21.00;89.40
41630;DHT22;27322;49.488;8.480;2022-08-21T06:56:04;21.00;88.90
41630;DHT22;27322;49.488;8.480;2022-08-21T06:58:30;21.10;88.20
41630;DHT22;27322;49.488;8.480;2022-08-21T07:00:56;21.10;87.90
41630;DHT22;27322;49.488;8.480;2022-08-21T07:03:35;21.10;87.70
41630;DHT22;27322;49.488;8.480;2022-08-21T07:06:02;21.20;87.70
41630;DHT22;27322;49.488;8.480;2022-08-21T07:08:28;21.20;86.40
41630;DHT22;27322;49.488;8.480;2022-08-21T07:10:56;21.30;85.60
41630;DHT22;27322;49.488;8.480;2022-08-21T07:13:22;21.30;85.80
41630;DHT22;27322;49.488;8.480;2022-08-21T07:15:48;21.30;85.60
41630;DHT22;27322;49.488;8.480;2022-08-21T07:18:14;21.40;85.00
41630;DHT22;27322;49.488;8.480;2022-08-21T07:20:41;21.40;85.30
41630;DHT22;27322;49.488;8.480;2022-08-21T07:23:24;21.40;84.90
41630;DHT22;27322;49.488;8.480;2022-08-21T07:25:51;21.50;84.80
41630;DHT22;27322;49.488;8.480;2022-08-21T07:28:17;21.50;85.20
41630;DHT22;27322;49.488;8.480;2022-08-21T07:30:42;21.60;85.70
41630;DHT22;27322;49.488;8.480;2022-08-21T07:33:08;21.60;85.10
41630;DHT22;27322;49.488;8.480;2022-08-21T07:35:34;21.70;84.30
41630;DHT22;27322;49.488;8.480;2022-08-21T07:38:02;21.80;84.00
41630;DHT22;27322;49.488;8.480;2022-08-21T07:40:28;21.80;83.10
41630;DHT22;27322;49.488;8.480;2022-08-21T07:42:54;21.90;83.60
41630;DHT22;27322;49.488;8.480;2022-08-21T07:45:21;21.90;82.80
41630;DHT22;27322;49.488;8.480;2022-08-21T07:47:47;22.00;83.40
41630;DHT22;27322;49.488;8.480;2022-08-21T07:50:14;22.10;83.20
41630;DHT22;27322;49.488;8.480;2022-08-21T07:52:41;22.20;82.10
41630;DHT22;27322;49.488;8.480;2022-08-21T07:55:09;22.30;82.40
41630;DHT22;27322;49.488;8.480;2022-08-21T07:57:36;22.30;82.40
41630;DHT22;27322;49.488;8.480;2022-08-21T08:00:04;22.40;81.50
41630;DHT22;27322;49.488;8.480;2022-08-21T08:02:30;22.40;81.40
41630;DHT22;27322;49.488;8.480;2022-08-21T08:05:01;22.50;81.30
41630;DHT22;27322;49.488;8.480;2022-08-21T08:07:27;22.60;81.10
41630;DHT22;27322;49.488;8.480;2022-08-21T08:09:53;22.60;81.20
41630;DHT22;27322;49.488;8.480;2022-08-21T08:12:18;22.60;81.00
41630;DHT22;27322;49.488;8.480;2022-08-21T08:14:46;22.70;80.70
41630;DHT22;27322;49.488;8.480;2022-08-21T08:17:11;22.70;80.40
41630;DHT22;27322;49.488;8.480;2022-08-21T08:19:39;22.80;80.60
41630;DHT22;27322;49.488;8.480;2022-08-21T08:22:18;22.90;80.30
41630;DHT22;27322;49.488;8.480;2022-08-21T08:24:45;23.00;80.60
41630;DHT22;27322;49.488;8.480;2022-08-21T08:27:11;23.10;80.60
41630;DHT22;27322;49.488;8.480;2022-08-21T08:29:37;23.40;79.30
41630;DHT22;27322;49.488;8.480;2022-08-21T08:32:04;23.70;78.30
41630;DHT22;27322;49.488;8.480;2022-08-21T08:34:31;23.70;78.00
41630;DHT22;27322;49.488;8.480;2022-08-21T08:36:56;23.80;77.20
41630;DHT22;27322;49.488;8.480;2022-08-21T08:39:24;23.80;76.90
41630;DHT22;27322;49.488;8.480;2022-08-21T08:41:56;23.90;77.40
41630;DHT22;27322;49.488;8.480;2022-08-21T08:44:24;23.90;77.10
41630;DHT22;27322;49.488;8.480;2022-08-21T08:46:50;24.00;76.90
41630;DHT22;27322;49.488;8.480;2022-08-21T08:49:24;24.00;77.00
41630;DHT22;27322;49.488;8.480;2022-08-21T08:52:00;23.90;77.30
41630;DHT22;27322;49.488;8.480;2022-08-21T08:54:35;23.90;77.50
41630;DHT22;27322;49.488;8.480;2022-08-21T08:57:03;24.00;77.00
41630;DHT22;27322;49.488;8.480;2022-08-21T08:59:40;24.20;76.50
41630;DHT22;27322;49.488;8.480;2022-08-21T09:02:06;24.40;75.80
41630;DHT22;27322;49.488;8.480;2022-08-21T09:04:35;24.40;75.70
41630;DHT22;27322;49.488;8.480;2022-08-21T09:21:51;26.20;70.30
41630;DHT22;27322;49.488;8.480;2022-08-21T09:26:47;25.80;70.00
41630;DHT22;27322;49.488;8.480;2022-08-21T09:29:18;25.70;70.30
41630;DHT22;27322;49.488;8.480;2022-08-21T09:31:45;25.50;69.30
41630;DHT22;27322;49.488;8.480;2022-08-21T09:34:12;25.40;69.10
41630;DHT22;27322;49.488;8.480;2022-08-21T09:36:47;25.40;67.50
41630;DHT22;27322;49.488;8.480;2022-08-21T09:39:27;25.30;67.50
41630;DHT22;27322;49.488;8.480;2022-08-21T09:42:08;25.20;68.10
41630;DHT22;27322;49.488;8.480;2022-08-21T09:44:37;25.20;68.30
41630;DHT22;27322;49.488;8.480;2022-08-21T09:47:06;25.20;68.20
41630;DHT22;27322;49.488;8.480;2022-08-21T09:49:34;25.20;68.60
41630;DHT22;27322;49.488;8.480;2022-08-21T09:52:02;25.50;66.50
41630;DHT22;27322;49.488;8.480;2022-08-21T09:54:32;25.80;65.00
41630;DHT22;27322;49.488;8.480;2022-08-21T09:57:01;26.40;63.90
41630;DHT22;27322;49.488;8.480;2022-08-21T09:59:55;27.70;61.20
41630;DHT22;27322;49.488;8.480;2022-08-21T10:02:30;30.10;55.80
41630;DHT22;27322;49.488;8.480;2022-08-21T10:04:59;31.50;51.50
41630;DHT22;27322;49.488;8.480;2022-08-21T10:07:29;32.60;48.30
41630;DHT22;27322;49.488;8.480;2022-08-21T10:10:29;32.70;47.40
41630;DHT22;27322;49.488;8.480;2022-08-21T10:13:02;32.00;47.80
41630;DHT22;27322;49.488;8.480;2022-08-21T10:15:59;31.10;49.00
41630;DHT22;27322;49.488;8.480;2022-08-21T10:23:55;28.50;53.00
41630;DHT22;27322;49.488;8.480;2022-08-21T10:29:01;27.30;54.50
41630;DHT22;27322;49.488;8.480;2022-08-21T10:31:40;26.90;56.20
41630;DHT22;27322;49.488;8.480;2022-08-21T10:34:26;26.60;56.10
41630;DHT22;27322;49.488;8.480;2022-08-21T10:42:52;26.30;58.40
41630;DHT22;27322;49.488;8.480;2022-08-21T10:48:04;26.40;57.80
41630;DHT22;27322;49.488;8.480;2022-08-21T10:56:09;27.20;56.20
41630;DHT22;27322;49.488;8.480;2022-08-21T10:59:26;27.90;53.90
41630;DHT22;27322;49.488;8.480;2022-08-21T11:01:44;28.20;52.50
41630;DHT22;27322;49.488;8.480;2022-08-21T11:04:15;28.00;53.20
41630;DHT22;27322;49.488;8.480;2022-08-21T11:06:47;27.70;52.60
41630;DHT22;27322;49.488;8.480;2022-08-21T11:09:19;27.50;53.30
41630;DHT22;27322;49.488;8.480;2022-08-21T11:14:41;27.10;54.00
41630;DHT22;27322;49.488;8.480;2022-08-21T11:17:13;27.10;54.50
41630;DHT22;27322;49.488;8.480;2022-08-21T11:23:02;27.10;54.40
41630;DHT22;27322;49.488;8.480;2022-08-21T11:28:17;26.90;54.60
41630;DHT22;27322;49.488;8.480;2022-08-21T11:36:50;26.60;54.70
41630;DHT22;27322;49.488;8.480;2022-08-21T11:47:23;26.40;56.10
41630;DHT22;27322;49.488;8.480;2022-08-21T11:52:31;26.40;56.30
41630;DHT22;27322;49.488;8.480;2022-08-21T11:55:19;26.50;54.70
41630;DHT22;27322;49.488;8.480;2022-08-21T11:57:58;26.50;55.10
41630;DHT22;27322;49.488;8.480;2022-08-21T12:00:33;26.60;55.40
41630;DHT22;27322;49.488;8.480;2022-08-21T12:03:09;26.70;54.70
41630;DHT22;27322;49.488;8.480;2022-08-21T12:05:39;26.70;55.80
41630;DHT22;27322;49.488;8.480;2022-08-21T12:11:04;26.70;55.70
41630;DHT22;27322;49.488;8.480;2022-08-21T12:13:35;26.70;55.50
41630;DHT22;27322;49.488;8.480;2022-08-21T12:16:12;26.80;55.40
41630;DHT22;27322;49.488;8.480;2022-08-21T12:18:39;26.80;54.50
41630;DHT22;27322;49.488;8.480;2022-08-21T12:21:26;26.80;54.90
41630;DHT22;27322;49.488;8.480;2022-08-21T12:24:15;26.80;54.80
41630;DHT22;27322;49.488;8.480;2022-08-21T12:26:59;26.90;54.40
41630;DHT22;27322;49.488;8.480;2022-08-21T12:29:37;27.00;55.50
41630;DHT22;27322;49.488;8.480;2022-08-21T12:32:42;26.90;55.10
41630;DHT22;27322;49.488;8.480;2022-08-21T12:35:17;26.90;54.30
41630;DHT22;27322;49.488;8.480;2022-08-21T12:40:25;26.70;54.40
41630;DHT22;27322;49.488;8.480;2022-08-21T12:42:55;26.70;53.80
41630;DHT22;27322;49.488;8.480;2022-08-21T12:45:40;26.70;53.90
41630;DHT22;27322;49.488;8.480;2022-08-21T12:50:45;26.80;54.60
41630;DHT22;27322;49.488;8.480;2022-08-21T12:55:45;26.90;54.70
41630;DHT22;27322;49.488;8.480;2022-08-21T12:58:21;27.00;52.80
41630;DHT22;27322;49.488;8.480;2022-08-21T13:01:06;27.10;51.90
41630;DHT22;27322;49.488;8.480;2022-08-21T13:03:35;27.10;52.70
41630;DHT22;27322;49.488;8.480;2022-08-21T13:06:03;27.00;53.40
41630;DHT22;27322;49.488;8.480;2022-08-21T13:08:30;27.00;53.30
41630;DHT22;27322;49.488;8.480;2022-08-21T13:11:04;27.00;53.80
41630;DHT22;27322;49.488;8.480;2022-08-21T13:13:31;27.00;54.70
41630;DHT22;27322;49.488;8.480;2022-08-21T13:15:59;27.00;54.00
41630;DHT22;27322;49.488;8.480;2022-08-21T13:18:28;27.10;53.00
41630;DHT22;27322;49.488;8.480;2022-08-21T13:21:04;27.20;53.10
41630;DHT22;27322;49.488;8.480;2022-08-21T13:23:31;27.20;53.20
41630;DHT22;27322;49.488;8.480;2022-08-21T13:25:57;27.20;52.80
41630;DHT22;27322;49.488;8.480;2022-08-21T13:28:24;27.40;52.20
41630;DHT22;27322;49.488;8.480;2022-08-21T13:30:58;27.50;51.60
41630;DHT22;27322;49.488;8.480;2022-08-21T13:33:27;27.60;51.10
41630;DHT22;27322;49.488;8.480;2022-08-21T13:38:33;27.80;52.20
41630;DHT22;27322;49.488;8.480;2022-08-21T13:41:36;27.90;52.00
41630;DHT22;27322;49.488;8.480;2022-08-21T13:44:05;28.40;51.70
41630;DHT22;27322;49.488;8.480;2022-08-21T13:46:34;28.90;51.00
41630;DHT22;27322;49.488;8.480;2022-08-21T13:49:02;29.20;50.00
41630;DHT22;27322;49.488;8.480;2022-08-21T13:51:30;30.10;49.00
41630;DHT22;27322;49.488;8.480;2022-08-21T13:53:57;31.80;46.80
41630;DHT22;27322;49.488;8.480;2022-08-21T13:56:29;33.50;44.40
41630;DHT22;27322;49.488;8.480;2022-08-21T13:58:56;34.20;43.00
41630;DHT22;27322;49.488;8.480;2022-08-21T14:01:31;34.20;42.60
41630;DHT22;27322;49.488;8.480;2022-08-21T14:04:16;33.90;42.90
41630;DHT22;27322;49.488;8.480;2022-08-21T14:06:45;33.20;43.80
41630;DHT22;27322;49.488;8.480;2022-08-21T14:09:32;32.70;44.30
41630;DHT22;27322;49.488;8.480;2022-08-21T14:12:02;32.30;44.40
41630;DHT22;27322;49.488;8.480;2022-08-21T14:14:38;32.20;44.80
41630;DHT22;27322;49.488;8.480;2022-08-21T14:17:07;32.40;44.90
41630;DHT22;27322;49.488;8.480;2022-08-21T14:19:42;33.00;44.00
41630;DHT22;27322;49.488;8.480;2022-08-21T14:22:28;33.60;43.10
41630;DHT22;27322;49.488;8.480;2022-08-21T14:32:53;33.10;43.70
41630;DHT22;27322;49.488;8.480;2022-08-21T14:35:19;32.70;44.10
41630;DHT22;27322;49.488;8.480;2022-08-21T14:37:47;32.60;44.20
41630;DHT22;27322;49.488;8.480;2022-08-21T14:40:13;33.10;43.80
41630;DHT22;27322;49.488;8.480;2022-08-21T14:42:41;34.10;41.70
41630;DHT22;27322;49.488;8.480;2022-08-21T14:45:30;34.90;40.40
41630;DHT22;27322;49.488;8.480;2022-08-21T14:47:58;35.10;40.60
41630;DHT22;27322;49.488;8.480;2022-08-21T14:50:24;35.20;41.00
41630;DHT22;27322;49.488;8.480;2022-08-21T14:52:49;35.50;40.30
41630;DHT22;27322;49.488;8.480;2022-08-21T14:55:16;35.90;39.70
41630;DHT22;27322;49.488;8.480;2022-08-21T14:57:51;36.30;39.30
41630;DHT22;27322;49.488;8.480;2022-08-21T15:00:22;36.20;38.90
41630;DHT22;27322;49.488;8.480;2022-08-21T15:02:48;35.80;39.40
41630;DHT22;27322;49.488;8.480;2022-08-21T15:05:14;35.20;39.70
41630;DHT22;27322;49.488;8.480;2022-08-21T15:07:40;34.30;40.70
41630;DHT22;27322;49.488;8.480;2022-08-21T15:10:07;33.50;41.20
41630;DHT22;27322;49.488;8.480;2022-08-21T15:12:33;32.60;42.00
41630;DHT22;27322;49.488;8.480;2022-08-21T15:14:58;31.90;43.30
41630;DHT22;27322;49.488;8.480;2022-08-21T15:17:24;31.30;43.70
41630;DHT22;27322;49.488;8.480;2022-08-21T15:19:50;30.70;44.10
41630;DHT22;27322;49.488;8.480;2022-08-21T15:22:16;30.30;44.50
41630;DHT22;27322;49.488;8.480;2022-08-21T15:24:41;29.90;45.30
41630;DHT22;27322;49.488;8.480;2022-08-21T15:27:09;29.60;46.60
41630;DHT22;27322;49.488;8.480;2022-08-21T15:29:35;29.30;47.00
41630;DHT22;27322;49.488;8.480;2022-08-21T15:32:22;29.10;47.10
41630;DHT22;27322;49.488;8.480;2022-08-21T15:34:49;28.90;47.30
41630;DHT22;27322;49.488;8.480;2022-08-21T15:37:15;28.70;47.90
41630;DHT22;27322;49.488;8.480;2022-08-21T15:39:41;28.50;48.00
41630;DHT22;27322;49.488;8.480;2022-08-21T15:42:07;28.40;48.70
41630;DHT22;27322;49.488;8.480;2022-08-21T15:44:33;28.20;49.10
41630;DHT22;27322;49.488;8.480;2022-08-21T15:46:59;28.10;48.70
41630;DHT22;27322;49.488;8.480;2022-08-21T15:49:25;28.10;48.90
41630;DHT22;27322;49.488;8.480;2022-08-21T15:51:50;28.00;49.00
41630;DHT22;27322;49.488;8.480;2022-08-21T15:54:16;28.00;49.20
41630;DHT22;27322;49.488;8.480;2022-08-21T15:56:45;27.80;49.10
41630;DHT22;27322;49.488;8.480;2022-08-21T15:59:15;27.80;49.20
41630;DHT22;27322;49.488;8.480;2022-08-21T16:01:42;27.70;49.10
41630;DHT22;27322;49.488;8.480;2022-08-21T16:04:08;27.70;49.90
41630;DHT22;27322;49.488;8.480;2022-08-21T16:06:34;27.60;50.10
41630;DHT22;27322;49.488;8.480;2022-08-21T16:09:00;27.50;49.20
41630;DHT22;27322;49.488;8.480;2022-08-21T16:11:27;27.50;50.40
41630;DHT22;27322;49.488;8.480;2022-08-21T16:13:53;27.40;50.70
41630;DHT22;27322;49.488;8.480;2022-08-21T16:16:22;27.30;50.30
41630;DHT22;27322;49.488;8.480;2022-08-21T16:18:49;27.30;50.10
41630;DHT22;27322;49.488;8.480;2022-08-21T16:21:16;27.30;50.40
41630;DHT22;27322;49.488;8.480;2022-08-21T16:23:42;27.20;50.10
41630;DHT22;27322;49.488;8.480;2022-08-21T16:26:11;27.20;49.80
41630;DHT22;27322;49.488;8.480;2022-08-21T16:28:39;27.10;50.60
41630;DHT22;27322;49.488;8.480;2022-08-21T16:31:06;27.10;51.30
41630;DHT22;27322;49.488;8.480;2022-08-21T16:33:44;27.00;51.40
41630;DHT22;27322;49.488;8.480;2022-08-21T16:36:12;27.00;51.20
41630;DHT22;27322;49.488;8.480;2022-08-21T16:38:38;26.90;51.20
41630;DHT22;27322;49.488;8.480;2022-08-21T16:41:08;26.90;50.90
41630;DHT22;27322;49.488;8.480;2022-08-21T16:43:34;26.80;50.80
41630;DHT22;27322;49.488;8.480;2022-08-21T16:46:00;26.80;51.60
41630;DHT22;27322;49.488;8.480;2022-08-21T16:48:27;26.70;51.70
41630;DHT22;27322;49.488;8.480;2022-08-21T16:50:54;26.70;51.80
41630;DHT22;27322;49.488;8.480;2022-08-21T16:53:20;26.60;51.90
41630;DHT22;27322;49.488;8.480;2022-08-21T16:55:46;26.50;52.60
41630;DHT22;27322;49.488;8.480;2022-08-21T16:58:31;26.40;52.20
41630;DHT22;27322;49.488;8.480;2022-08-21T17:00:59;26.40;52.40
41630;DHT22;27322;49.488;8.480;2022-08-21T17:03:32;26.30;52.50
41630;DHT22;27322;49.488;8.480;2022-08-21T17:05:59;26.30;53.00
41630;DHT22;27322;49.488;8.480;2022-08-21T17:08:25;26.20;53.60
41630;DHT22;27322;49.488;8.480;2022-08-21T17:10:51;26.10;53.30